Time;durP1;ratioP1;P1;durP2;ratioP2;P2;SDS_P1;SDS_P2;PMS_P1;PMS_P2;Temp;Humidity;BMP_temperature;BMP_pressure;BME280_temperature;BME280_humidity;BME280_pressure;Samples;Min_cycle;Max_cycle;Signal;HPM_P1;HPM_P2
2021/07/01 00:01:53;;;;;;;4.60;2.07;;;;;;;11.04;94.06;96494.41;3564317;40;20465;-73
2021/07/01 00:04:21;;;;;;;3.80;1.70;;;;;;;10.99;93.36;96491.28;3560129;40;20450;-71
2021/07/01 00:06:49;;;;;;;4.00;2.30;;;;;;;10.95;93.65;96495.06;3562939;40;20914;-71
2021/07/01 00:09:21;;;;;;;4.67;1.70;;;;;;;10.98;93.24;96484.38;3562170;40;20475;-72
2021/07/01 00:11:50;;;;;;;5.40;2.80;;;;;;;10.87;93.96;96491.22;3561419;40;20570;-72
2021/07/01 00:14:19;;;;;;;3.53;2.10;;;;;;;10.93;93.63;96487.31;3559846;40;20454;-72
2021/07/01 00:16:48;;;;;;;2.20;1.83;;;;;;;10.97;93.75;96487.94;3560739;40;20692;-72
2021/07/01 00:19:16;;;;;;;4.30;2.90;;;;;;;10.99;93.45;96488.66;3561889;39;20716;-72
2021/07/01 00:21:44;;;;;;;4.07;2.70;;;;;;;10.96;93.58;96494.13;3561188;40;20453;-72
2021/07/01 00:24:12;;;;;;;3.30;2.83;;;;;;;10.96;93.30;96491.50;3560768;40;20909;-72
2021/07/01 00:26:42;;;;;;;3.27;2.57;;;;;;;11.03;93.89;96500.59;3561646;40;20449;-72
2021/07/01 00:29:10;;;;;;;4.73;2.63;;;;;;;11.05;92.97;96496.06;3560903;39;20464;-72
2021/07/01 00:31:38;;;;;;;3.20;2.33;;;;;;;11.01;93.11;96495.44;3563585;40;20742;-72
2021/07/01 00:34:06;;;;;;;4.60;2.13;;;;;;;10.97;92.49;96499.25;3565056;39;20448;-72
2021/07/01 00:36:34;;;;;;;2.60;2.20;;;;;;;11.02;92.67;96504.16;3561492;40;20737;-72
2021/07/01 00:39:02;;;;;;;4.83;3.03;;;;;;;11.01;92.86;96500.69;3560947;40;20653;-72
2021/07/01 00:41:30;;;;;;;4.27;2.27;;;;;;;10.98;92.50;96500.09;3562178;40;20446;-72
2021/07/01 00:44:01;;;;;;;2.40;1.93;;;;;;;10.99;93.00;96499.13;3560654;40;20463;-72
2021/07/01 00:46:30;;;;;;;3.60;2.50;;;;;;;11.04;93.01;96507.53;3557465;40;20469;-71
2021/07/01 00:48:58;;;;;;;2.50;1.87;;;;;;;11.06;92.80;96495.13;3563036;40;20465;-72
2021/07/01 00:51:26;;;;;;;2.03;1.33;;;;;;;11.08;92.64;96493.25;3561139;40;20854;-72
2021/07/01 00:53:54;;;;;;;2.43;1.70;;;;;;;11.08;92.22;96488.84;3561286;39;20540;-72
2021/07/01 00:56:23;;;;;;;2.70;1.83;;;;;;;11.07;92.86;96488.94;3561084;40;20952;-72
2021/07/01 00:58:54;;;;;;;2.00;1.50;;;;;;;11.07;92.36;96488.94;3557649;40;20455;-73
2021/07/01 01:01:24;;;;;;;2.30;1.57;;;;;;;11.07;92.17;96486.31;3560225;40;20489;-73
2021/07/01 01:03:52;;;;;;;2.70;1.73;;;;;;;11.11;92.49;96495.63;3562618;40;20895;-72
2021/07/01 01:06:20;;;;;;;2.00;1.67;;;;;;;11.10;92.06;96487.91;3562500;40;21085;-71
2021/07/01 01:08:47;;;;;;;2.50;1.87;;;;;;;11.08;92.00;96486.22;3563714;40;20454;-72
2021/07/01 01:11:16;;;;;;;2.47;1.63;;;;;;;11.12;91.88;96496.47;3559102;39;20913;-73
2021/07/01 01:13:46;;;;;;;2.80;1.90;;;;;;;11.14;91.87;96490.16;3560748;40;20557;-73
2021/07/01 01:16:14;;;;;;;3.67;1.70;;;;;;;11.08;92.15;96490.63;3558813;40;20470;-73
2021/07/01 01:18:44;;;;;;;1.80;1.57;;;;;;;11.10;91.69;96496.59;3558759;40;20711;-72
2021/07/01 01:21:14;;;;;;;3.17;1.47;;;;;;;11.14;91.74;96498.03;3561282;39;20462;-71
2021/07/01 01:23:44;;;;;;;2.43;1.80;;;;;;;11.10;91.50;96491.34;3557431;40;20907;-72
2021/07/01 01:26:12;;;;;;;2.13;1.50;;;;;;;11.14;91.78;96495.41;3561164;40;20763;-71
2021/07/01 01:28:40;;;;;;;2.43;1.40;;;;;;;11.14;91.87;96495.41;3561646;40;20461;-71
2021/07/01 01:31:08;;;;;;;2.20;1.43;;;;;;;11.15;91.70;96497.06;3560932;39;20581;-71
2021/07/01 01:33:36;;;;;;;2.03;1.30;;;;;;;11.16;91.45;96501.38;3560133;40;20736;-70
2021/07/01 01:36:04;;;;;;;1.43;1.00;;;;;;;11.16;91.03;96498.75;3558591;39;20757;-71
2021/07/01 01:38:32;;;;;;;3.93;1.43;;;;;;;11.15;91.40;96499.69;3562245;40;20944;-72
2021/07/01 01:41:02;;;;;;;2.00;1.80;;;;;;;11.16;91.27;96498.75;3561364;39;20765;-71
2021/07/01 01:43:30;;;;;;;2.60;1.33;;;;;;;11.21;91.61;96494.03;3563608;40;21139;-70
2021/07/01 01:45:58;;;;;;;2.10;1.60;;;;;;;11.18;91.32;96496.03;3564309;39;20473;-73
2021/07/01 01:48:26;;;;;;;3.93;2.07;;;;;;;11.10;90.98;96488.72;3566125;40;20873;-72
2021/07/01 01:50:54;;;;;;;4.40;1.73;;;;;;;11.18;90.64;96485.56;3561707;40;20586;-73
2021/07/01 01:53:22;;;;;;;2.70;1.70;;;;;;;11.18;90.78;96498.66;3561090;40;20973;-72
2021/07/01 01:55:50;;;;;;;3.70;1.83;;;;;;;11.17;90.81;96496.97;3562107;39;20461;-72
2021/07/01 01:58:19;;;;;;;3.47;2.57;;;;;;;11.17;90.88;96492.59;3565159;40;20496;-73
2021/07/01 02:00:47;;;;;;;2.20;1.50;;;;;;;11.13;90.74;96493.72;3564644;39;20489;-73
2021/07/01 02:03:15;;;;;;;2.93;1.83;;;;;;;11.16;90.99;96497.94;3561844;40;20924;-72
2021/07/01 02:05:43;;;;;;;2.10;1.77;;;;;;;11.11;91.00;96500.88;3560796;40;20660;-72
2021/07/01 02:08:11;;;;;;;4.20;1.70;;;;;;;11.09;91.56;96497.53;3564159;40;20811;-72
2021/07/01 02:10:39;;;;;;;3.97;2.30;;;;;;;11.15;91.55;96494.44;3564316;40;20559;-74
2021/07/01 02:13:10;;;;;;;1.80;1.40;;;;;;;11.10;91.11;96496.59;3559856;40;20453;-73
2021/07/01 02:15:40;;;;;;;1.77;1.57;;;;;;;11.06;91.23;96498.59;3562662;39;20870;-71
2021/07/01 02:18:08;;;;;;;3.20;1.90;;;;;;;11.13;90.90;96493.72;3562044;40;20478;-72
2021/07/01 02:20:36;;;;;;;4.30;1.90;;;;;;;11.13;90.79;96503.38;3562972;39;20495;-72
2021/07/01 02:23:05;;;;;;;3.20;1.70;;;;;;;11.12;91.42;96497.31;3562734;40;20446;-72
2021/07/01 02:25:33;;;;;;;6.33;2.03;;;;;;;11.12;91.12;96497.31;3559897;40;20474;-72
2021/07/01 02:28:01;;;;;;;2.50;1.60;;;;;;;11.14;91.02;96500.66;3561246;40;20449;-71
2021/07/01 02:30:29;;;;;;;1.40;1.10;;;;;;;11.14;90.97;96500.66;3561310;40;21213;-72
2021/07/01 02:32:58;;;;;;;3.37;1.53;;;;;;;11.15;90.99;96504.94;3558969;40;20949;-72
2021/07/01 02:35:33;;;;;;;2.97;1.60;;;;;;;11.21;91.10;96499.28;3559227;39;20682;-72
2021/07/01 02:38:01;;;;;;;5.00;1.50;;;;;;;11.25;90.79;96500.72;3562803;40;20536;-72
2021/07/01 02:40:29;;;;;;;8.37;1.50;;;;;;;11.24;91.17;96501.66;3563096;40;20575;-72
2021/07/01 02:42:57;;;;;;;3.73;1.60;;;;;;;11.21;91.06;96509.75;3563179;40;20450;-73
2021/07/01 02:45:26;;;;;;;19.63;1.70;;;;;;;11.24;90.71;96501.66;3563400;39;20466;-71
2021/07/01 02:47:53;;;;;;;2.90;1.83;;;;;;;11.22;90.94;96507.97;3563003;40;20755;-71
2021/07/01 02:50:23;;;;;;;2.20;1.50;;;;;;;11.25;90.84;96505.97;3564700;39;20468;-71
2021/07/01 02:52:51;;;;;;;2.50;1.90;;;;;;;11.26;91.08;96512.88;3562493;40;20853;-71
2021/07/01 02:55:19;;;;;;;2.37;1.40;;;;;;;11.25;90.99;96515.59;3560125;40;20484;-72
2021/07/01 02:57:47;;;;;;;5.17;1.80;;;;;;;11.28;91.68;96515.38;3561747;40;20560;-71
2021/07/01 03:00:15;;;;;;;3.47;1.50;;;;;;;11.33;91.12;96520.28;3563770;39;20754;-71
2021/07/01 03:02:43;;;;;;;5.53;1.93;;;;;;;11.21;91.98;96528.09;3559529;40;20447;-72
2021/07/01 03:05:11;;;;;;;3.00;1.80;;;;;;;11.19;92.21;96519.53;3563245;40;20751;-72
2021/07/01 03:07:40;;;;;;;3.00;2.10;;;;;;;11.17;92.37;96529.28;3559217;40;20478;-73
2021/07/01 03:10:09;;;;;;;3.93;1.73;;;;;;;11.17;92.87;96526.66;3560247;39;20831;-71
2021/07/01 03:12:37;;;;;;;3.17;1.50;;;;;;;11.13;92.92;96522.56;3559110;40;20466;-71
2021/07/01 03:15:06;;;;;;;1.87;1.43;;;;;;;11.12;93.64;96520.06;3559926;40;20524;-71
2021/07/01 03:17:34;;;;;;;1.67;1.23;;;;;;;11.08;93.72;96512.41;3561139;40;20835;-72
2021/07/01 03:20:03;;;;;;;5.30;1.80;;;;;;;11.08;93.98;96516.84;3560819;39;20912;-72
2021/07/01 03:22:31;;;;;;;2.63;1.97;;;;;;;11.09;94.38;96513.25;3559620;40;20578;-72
2021/07/01 03:25:01;;;;;;;5.60;1.67;;;;;;;11.01;94.77;96516.41;3558189;39;20809;-72
2021/07/01 03:27:29;;;;;;;3.80;1.77;;;;;;;11.01;95.37;96516.41;3561370;40;20450;-72
2021/07/01 03:29:57;;;;;;;3.93;1.47;;;;;;;10.97;95.21;96516.75;3562507;40;20469;-71
2021/07/01 03:32:25;;;;;;;1.80;1.23;;;;;;;11.00;95.39;96516.53;3560958;40;20658;-71
2021/07/01 03:34:53;;;;;;;1.47;1.10;;;;;;;10.98;95.28;96511.41;3562599;39;20466;-72
2021/07/01 03:37:21;;;;;;;1.47;1.10;;;;;;;11.00;95.17;96514.75;3563336;40;20915;-71
2021/07/01 03:39:49;;;;;;;1.80;1.40;;;;;;;11.00;95.19;96511.31;3559056;40;20851;-73
2021/07/01 03:42:20;;;;;;;3.60;1.30;;;;;;;10.92;94.70;96501.38;3565110;40;21096;-71
2021/07/01 03:44:49;;;;;;;6.67;1.70;;;;;;;10.94;94.60;96494.25;3564356;40;20451;-71
2021/07/01 03:47:17;;;;;;;1.80;1.50;;;;;;;11.01;94.88;96511.19;3561389;40;20835;-73
2021/07/01 03:49:45;;;;;;;1.63;1.30;;;;;;;11.09;94.48;96513.25;3563850;39;20795;-73
2021/07/01 03:52:13;;;;;;;1.57;1.37;;;;;;;11.11;94.70;96518.38;3561616;40;20525;-72
2021/07/01 03:54:41;;;;;;;1.00;0.90;;;;;;;11.07;94.15;96515.13;3560824;40;21217;-70
2021/07/01 03:57:09;;;;;;;1.63;1.40;;;;;;;11.06;94.08;96511.69;3561353;40;20450;-73
2021/07/01 03:59:38;;;;;;;1.60;1.10;;;;;;;11.13;94.26;96519.09;3558876;39;20560;-72
2021/07/01 04:02:06;;;;;;;6.30;1.37;;;;;;;11.19;93.76;96511.66;3557141;40;20467;-72
2021/07/01 04:04:34;;;;;;;2.17;1.47;;;;;;;11.19;93.39;96511.66;3563856;40;20457;-70
2021/07/01 04:07:03;;;;;;;2.03;1.20;;;;;;;11.20;93.24;96510.69;3561647;40;20867;-72
2021/07/01 04:09:31;;;;;;;1.60;1.50;;;;;;;11.24;93.07;96522.63;3560802;40;20472;-72
2021/07/01 04:11:59;;;;;;;2.27;1.40;;;;;;;11.24;92.76;96517.38;3561320;40;20472;-71
2021/07/01 04:14:27;;;;;;;1.73;1.13;;;;;;;11.27;92.17;96532.91;3564374;39;20563;-71
2021/07/01 04:16:56;;;;;;;1.33;1.10;;;;;;;11.38;91.93;96531.28;3562227;40;20442;-74
2021/07/01 04:19:25;;;;;;;1.50;1.10;;;;;;;11.33;92.37;96530.75;3560682;39;20852;-71
2021/07/01 04:21:52;;;;;;;3.90;1.70;;;;;;;11.39;92.21;96536.41;3569403;40;20455;-71
2021/07/01 04:24:20;;;;;;;6.23;1.20;;;;;;;11.32;92.38;96534.34;3558508;40;20841;-72
2021/07/01 04:26:49;;;;;;;1.63;1.17;;;;;;;11.34;92.35;96537.69;3558909;40;20479;-73
2021/07/01 04:29:16;;;;;;;3.53;1.97;;;;;;;11.35;92.20;96529.72;3560254;39;20786;-72
2021/07/01 04:31:44;;;;;;;3.77;1.23;;;;;;;11.39;92.65;96535.59;3562849;40;20584;-72
2021/07/01 04:34:14;;;;;;;2.40;0.77;;;;;;;11.31;92.34;96530.03;3559082;40;20483;-71
2021/07/01 04:36:43;;;;;;;3.17;0.90;;;;;;;11.31;92.94;96532.66;3558652;40;21148;-73
2021/07/01 04:39:11;;;;;;;1.67;1.00;;;;;;;11.35;92.21;96534.09;3563820;39;20760;-74
2021/07/01 04:41:39;;;;;;;3.10;1.30;;;;;;;11.38;92.12;96537.34;3562931;40;20494;-71
2021/07/01 04:44:08;;;;;;;4.43;0.90;;;;;;;11.40;92.24;96539.88;3561292;40;20458;-74
2021/07/01 04:46:36;;;;;;;1.00;0.70;;;;;;;11.47;91.47;96541.94;3563400;40;20478;-72
2021/07/01 04:49:06;;;;;;;2.60;1.20;;;;;;;11.50;91.45;96542.66;3558306;39;21173;-72
2021/07/01 04:51:36;;;;;;;1.00;0.77;;;;;;;11.51;91.56;96542.53;3558752;40;20447;-70
2021/07/01 04:54:04;;;;;;;2.17;0.80;;;;;;;11.54;92.24;96538.84;3563057;39;20454;-72
2021/07/01 04:56:44;;;;;;;1.13;1.03;;;;;;;11.51;91.03;96542.53;3562166;40;20820;-73
2021/07/01 04:59:12;;;;;;;2.10;1.20;;;;;;;11.45;91.43;96543.00;3558581;40;20774;-71
2021/07/01 05:01:41;;;;;;;7.03;1.13;;;;;;;11.43;91.54;96542.28;3565271;40;20491;-70
2021/07/01 05:04:12;;;;;;;0.93;0.70;;;;;;;11.48;91.85;96545.38;3560949;39;21017;-72
2021/07/01 05:06:43;;;;;;;3.83;0.90;;;;;;;11.50;91.20;96546.09;3563387;40;20544;-72
2021/07/01 05:09:11;;;;;;;3.43;1.00;;;;;;;11.61;91.28;96543.53;3562809;39;20467;-72
2021/07/01 05:11:39;;;;;;;6.20;1.17;;;;;;;11.59;91.02;96542.81;3561410;40;20862;-73
2021/07/01 05:14:07;;;;;;;3.23;1.00;;;;;;;11.66;91.77;96541.41;3561058;40;20866;-71
2021/07/01 05:16:35;;;;;;;1.20;0.90;;;;;;;11.67;91.01;96537.84;3561544;40;20907;-71
2021/07/01 05:19:03;;;;;;;3.17;0.90;;;;;;;11.73;91.57;96535.72;3560986;39;21147;-72
2021/07/01 05:21:31;;;;;;;1.50;1.10;;;;;;;11.78;90.96;96544.06;3563595;40;20613;-75
2021/07/01 05:24:01;;;;;;;1.73;1.20;;;;;;;11.76;90.80;96538.09;3559591;40;20953;-72
2021/07/01 05:26:29;;;;;;;1.37;1.03;;;;;;;11.74;91.09;96537.38;3562032;40;20768;-71
2021/07/01 05:28:57;;;;;;;1.87;1.40;;;;;;;11.65;90.96;96544.97;3565050;39;21013;-71
2021/07/01 05:31:45;;;;;;;1.10;0.90;;;;;;;11.59;90.14;96548.06;3561112;40;20665;-71
2021/07/01 05:34:13;;;;;;;2.90;2.07;;;;;;;11.52;90.87;96544.19;3561048;40;20851;-70
2021/07/01 05:36:41;;;;;;;1.07;0.80;;;;;;;11.59;90.71;96542.81;3562161;40;20651;-73
2021/07/01 05:39:10;;;;;;;1.47;1.07;;;;;;;11.52;91.48;96540.75;3564256;39;20684;-73
2021/07/01 05:41:38;;;;;;;1.87;1.07;;;;;;;11.53;91.38;96543.28;3559577;40;20463;-72
2021/07/01 05:44:06;;;;;;;1.50;1.23;;;;;;;11.47;91.21;96547.16;3561439;40;20457;-73
2021/07/01 05:46:34;;;;;;;1.27;1.10;;;;;;;11.51;91.48;96545.16;3565116;40;20499;-73
2021/07/01 05:49:02;;;;;;;1.83;1.17;;;;;;;11.51;91.73;96545.16;3563865;39;20430;-75
2021/07/01 05:51:33;;;;;;;1.23;0.90;;;;;;;11.48;91.33;96553.25;3564213;40;20693;-72
2021/07/01 05:54:07;;;;;;;1.20;0.90;;;;;;;11.55;91.34;96551.03;3565283;39;20551;-73
2021/07/01 05:56:39;;;;;;;2.73;1.00;;;;;;;11.61;91.04;96543.53;3566962;40;20521;-72
2021/07/01 05:59:08;;;;;;;3.00;1.10;;;;;;;11.65;91.29;96547.59;3564033;39;20444;-73
2021/07/01 06:01:37;;;;;;;5.23;1.20;;;;;;;11.72;91.16;96552.38;3563557;40;20446;-71
2021/07/01 06:04:05;;;;;;;1.40;1.10;;;;;;;11.82;90.51;96553.41;3563242;39;20426;-71
2021/07/01 06:06:35;;;;;;;2.13;1.13;;;;;;;11.89;90.57;96549.38;3559059;40;20795;-72
2021/07/01 06:09:08;;;;;;;1.97;1.00;;;;;;;11.97;89.74;96561.94;3564858;39;20442;-73
2021/07/01 06:11:37;;;;;;;1.83;1.20;;;;;;;12.00;90.06;96559.09;3563465;40;20826;-72
2021/07/01 06:14:06;;;;;;;1.87;1.40;;;;;;;11.90;89.70;96558.94;3563775;39;20533;-73
2021/07/01 06:16:36;;;;;;;34.77;16.00;;;;;;;11.88;89.10;96569.50;3563242;40;20813;-71
2021/07/01 06:19:05;;;;;;;2.60;1.40;;;;;;;11.89;88.97;96565.13;3564709;39;20539;-72
2021/07/01 06:21:34;;;;;;;1.83;1.27;;;;;;;11.97;89.12;96578.50;3565788;40;20814;-74
2021/07/01 06:24:02;;;;;;;4.47;1.50;;;;;;;12.01;89.16;96572.06;3561196;40;20778;-71
2021/07/01 06:26:31;;;;;;;2.53;1.90;;;;;;;12.00;89.38;96573.03;3561101;40;21128;-72
2021/07/01 06:29:01;;;;;;;4.23;1.40;;;;;;;12.06;89.78;96572.56;3565223;39;20847;-74
2021/07/01 06:31:28;;;;;;;1.63;1.17;;;;;;;12.02;89.22;96567.69;3563710;40;20769;-71
2021/07/01 06:33:57;;;;;;;3.70;1.73;;;;;;;12.06;88.92;96563.88;3564338;39;20957;-73
2021/07/01 06:36:27;;;;;;;2.00;1.20;;;;;;;12.12;89.07;96575.72;3562665;40;20804;-74
2021/07/01 06:38:58;;;;;;;1.40;1.20;;;;;;;12.14;88.55;96571.16;3560932;40;20811;-73
2021/07/01 06:41:27;;;;;;;1.70;1.30;;;;;;;12.27;88.92;96571.91;3560977;40;20770;-72
2021/07/01 06:43:57;;;;;;;16.13;2.03;;;;;;;12.34;88.52;96573.09;3560897;39;20473;-72
2021/07/01 06:46:30;;;;;;;2.93;1.83;;;;;;;12.27;87.75;96572.75;3560846;40;20458;-72
2021/07/01 06:49:00;;;;;;;3.00;1.40;;;;;;;12.31;88.24;96580.38;3562514;39;21177;-71
2021/07/01 06:51:30;;;;;;;9.33;5.47;;;;;;;12.38;87.97;96586.84;3559893;40;20820;-75
2021/07/01 06:53:58;;;;;;;2.27;1.60;;;;;;;12.36;87.42;96586.13;3562480;40;20976;-73
2021/07/01 06:56:27;;;;;;;2.10;1.73;;;;;;;12.30;87.73;96578.72;3560993;40;20454;-75
2021/07/01 06:58:55;;;;;;;3.00;1.70;;;;;;;12.56;87.47;96588.06;3561876;39;20470;-72
2021/07/01 07:01:23;;;;;;;3.57;1.50;;;;;;;12.59;85.87;96589.63;3561291;40;20476;-73
2021/07/01 07:04:12;;;;;;;2.07;1.70;;;;;;;12.73;85.43;96586.75;3561268;39;20883;-72
2021/07/01 07:06:42;;;;;;;3.50;1.40;;;;;;;12.88;84.35;96594.41;3560790;40;20929;-71
2021/07/01 07:09:10;;;;;;;3.37;1.93;;;;;;;12.82;84.38;96591.31;3563690;39;20471;-75
2021/07/01 07:11:38;;;;;;;5.27;2.13;;;;;;;13.16;83.25;96593.09;3563454;40;20840;-73
2021/07/01 07:14:06;;;;;;;2.73;1.27;;;;;;;13.47;83.04;96594.13;3562197;39;20462;-71
2021/07/01 07:16:39;;;;;;;1.80;1.50;;;;;;;13.43;82.31;96595.34;3560143;40;20539;-72
2021/07/01 07:19:08;;;;;;;3.27;1.80;;;;;;;13.33;82.45;96587.34;3559192;40;20739;-70
2021/07/01 07:21:44;;;;;;;3.40;1.70;;;;;;;13.12;81.57;96589.03;3563654;40;20465;-72
2021/07/01 07:24:16;;;;;;;2.10;1.43;;;;;;;13.21;82.42;96601.41;3561437;39;20479;-72
2021/07/01 07:26:44;;;;;;;1.67;1.50;;;;;;;13.39;81.77;96600.00;3560580;40;21186;-74
2021/07/01 07:29:32;;;;;;;2.67;1.87;;;;;;;13.34;81.12;96601.31;3565047;40;20903;-72
2021/07/01 07:32:03;;;;;;;2.20;1.80;;;;;;;13.31;81.12;96601.56;3560832;40;20458;-73
2021/07/01 07:34:32;;;;;;;2.70;1.97;;;;;;;13.39;80.68;96588.66;3561727;39;20927;-74
2021/07/01 07:37:02;;;;;;;7.20;1.90;;;;;;;13.62;80.21;96600.78;3560392;40;20807;-72
2021/07/01 07:39:32;;;;;;;2.10;1.60;;;;;;;13.45;79.87;96603.94;3561776;40;20448;-74
2021/07/01 07:42:00;;;;;;;2.50;2.23;;;;;;;13.30;80.06;96607.78;3560810;40;20913;-73
2021/07/01 07:44:28;;;;;;;2.37;1.40;;;;;;;13.31;80.14;96612.06;3565158;39;20467;-72
2021/07/01 07:46:57;;;;;;;2.30;1.93;;;;;;;13.27;79.83;96606.22;3561934;40;20537;-72
2021/07/01 07:49:25;;;;;;;2.50;1.93;;;;;;;13.50;80.17;96608.81;3565430;40;20556;-73
2021/07/01 07:51:53;;;;;;;1.77;1.47;;;;;;;13.28;79.58;96612.31;3561943;40;20817;-74
2021/07/01 07:54:28;;;;;;;4.40;2.33;;;;;;;13.25;79.74;96597.63;3563382;39;20518;-72
2021/07/01 07:56:56;;;;;;;2.23;1.80;;;;;;;13.26;79.63;96600.09;3561739;40;20452;-71
2021/07/01 07:59:28;;;;;;;3.17;2.40;;;;;;;13.38;79.38;96606.22;3563307;40;20487;-72
2021/07/01 08:01:58;;;;;;;2.57;1.70;;;;;;;13.40;80.17;96598.19;3563255;40;20442;-72
2021/07/01 08:04:28;;;;;;;3.20;1.63;;;;;;;13.59;78.39;96593.13;3562685;39;20729;-70
2021/07/01 08:06:57;;;;;;;2.83;1.80;;;;;;;13.65;78.45;96594.44;3561884;40;20471;-74
2021/07/01 08:09:28;;;;;;;3.90;1.60;;;;;;;13.80;78.67;96592.34;3564599;40;20458;-73
2021/07/01 08:11:57;;;;;;;3.13;1.80;;;;;;;14.20;76.37;96594.31;3563428;40;20546;-73
2021/07/01 08:14:26;;;;;;;3.20;2.27;;;;;;;14.10;76.02;96591.63;3562612;39;20680;-73
2021/07/01 08:16:54;;;;;;;2.07;1.87;;;;;;;14.23;76.54;96594.06;3564412;40;20745;-71
2021/07/01 08:19:22;;;;;;;4.47;1.90;;;;;;;14.50;75.71;96597.97;3563804;39;20773;-71
2021/07/01 08:21:50;;;;;;;3.90;2.00;;;;;;;14.69;75.55;96597.28;3563347;40;20438;-71
2021/07/01 08:24:18;;;;;;;3.27;2.20;;;;;;;14.89;72.94;96590.28;3563255;39;20508;-73
2021/07/01 08:26:52;;;;;;;11.30;6.17;;;;;;;14.85;73.31;96586.25;3564354;40;20567;-74
2021/07/01 08:29:20;;;;;;;3.37;2.10;;;;;;;14.67;73.42;96592.13;3564208;39;20508;-73
2021/07/01 08:31:50;;;;;;;2.40;1.87;;;;;;;14.52;74.06;96591.59;3561169;40;20554;-71
2021/07/01 08:34:22;;;;;;;2.50;1.93;;;;;;;14.59;74.20;96591.97;3564275;39;20457;-72
2021/07/01 08:36:51;;;;;;;4.80;2.20;;;;;;;14.35;75.01;96593.03;3561342;40;20450;-70
2021/07/01 08:39:21;;;;;;;6.00;2.40;;;;;;;14.38;75.46;96576.94;3563933;39;20442;-71
2021/07/01 08:41:57;;;;;;;2.80;1.90;;;;;;;14.33;74.93;96588.84;3564038;40;20788;-73
2021/07/01 08:44:31;;;;;;;7.03;3.00;;;;;;;13.96;75.25;96594.56;3561732;40;20558;-74
2021/07/01 08:47:11;;;;;;;8.50;1.60;;;;;;;13.72;76.43;96602.66;3564837;40;20792;-72
2021/07/01 08:49:53;;;;;;;3.67;2.30;;;;;;;13.83;76.42;96600.00;3561615;40;20465;-71
2021/07/01 08:52:24;;;;;;;3.43;1.80;;;;;;;13.67;76.66;96602.22;3564229;40;20461;-71
2021/07/01 08:54:57;;;;;;;6.00;2.53;;;;;;;13.63;77.36;96607.72;3560875;40;20863;-74
2021/07/01 08:57:30;;;;;;;2.83;2.20;;;;;;;14.09;76.09;96607.53;3563509;40;20880;-71
2021/07/01 09:00:06;;;;;;;4.83;3.07;;;;;;;14.06;75.63;96607.81;3563081;39;20928;-72
2021/07/01 09:02:37;;;;;;;5.73;2.67;;;;;;;14.21;75.83;96607.38;3561551;40;20467;-71
2021/07/01 09:05:12;;;;;;;6.50;2.80;;;;;;;14.10;74.45;96609.22;3559955;40;20479;-71
2021/07/01 09:07:41;;;;;;;12.03;2.77;;;;;;;14.30;74.88;96610.19;3565373;40;20451;-72
2021/07/01 09:10:11;;;;;;;3.97;2.67;;;;;;;14.39;74.19;96607.63;3565490;39;20831;-71
2021/07/01 09:12:49;;;;;;;3.30;2.17;;;;;;;14.56;74.27;96611.50;3563953;40;20857;-73
2021/07/01 09:15:17;;;;;;;3.70;2.33;;;;;;;14.68;73.94;96609.63;3560376;40;20578;-72
2021/07/01 09:17:52;;;;;;;3.10;2.27;;;;;;;14.79;73.11;96608.69;3563477;40;20456;-71
2021/07/01 09:20:22;;;;;;;3.37;1.73;;;;;;;14.62;73.63;96604.84;3566055;40;20445;-70
2021/07/01 09:22:55;;;;;;;5.23;2.33;;;;;;;14.75;72.86;96612.56;3562756;40;20834;-74
2021/07/01 09:25:23;;;;;;;3.37;2.57;;;;;;;14.57;73.90;96609.69;3563111;39;20569;-73
2021/07/01 09:27:54;;;;;;;2.50;2.10;;;;;;;14.42;75.14;96609.97;3567032;40;20858;-73
2021/07/01 09:30:26;;;;;;;5.00;2.00;;;;;;;14.06;73.70;96603.38;3560673;40;20855;-73
2021/07/01 09:32:56;;;;;;;2.80;2.03;;;;;;;14.05;76.15;96612.22;3563499;40;20831;-71
2021/07/01 09:35:26;;;;;;;7.20;2.20;;;;;;;13.94;75.40;96612.28;3564540;39;20458;-73
2021/07/01 09:37:54;;;;;;;2.30;2.10;;;;;;;14.06;74.63;96613.06;3562496;40;20765;-72
2021/07/01 09:40:23;;;;;;;3.03;2.03;;;;;;;14.03;75.21;96615.00;3560346;40;20722;-72
2021/07/01 09:42:55;;;;;;;7.40;3.93;;;;;;;14.15;74.79;96607.03;3562971;40;21294;-71
2021/07/01 09:45:25;;;;;;;3.17;2.17;;;;;;;14.17;74.96;96608.59;3561750;39;20465;-72
2021/07/01 09:47:55;;;;;;;4.63;1.97;;;;;;;14.50;73.58;96608.50;3562186;40;20769;-71
2021/07/01 09:50:24;;;;;;;3.40;2.30;;;;;;;14.86;73.22;96612.50;3562623;40;20546;-72
2021/07/01 09:52:57;;;;;;;2.67;1.83;;;;;;;14.84;72.74;96609.16;3563572;40;20535;-73
2021/07/01 09:55:29;;;;;;;2.13;1.80;;;;;;;14.88;72.72;96610.56;3559871;39;20826;-71
2021/07/01 09:58:06;;;;;;;2.00;1.50;;;;;;;14.49;74.18;96615.59;3564726;40;20430;-72
2021/07/01 10:00:34;;;;;;;1.90;1.60;;;;;;;14.43;74.29;96616.94;3561071;39;20989;-73
2021/07/01 10:03:04;;;;;;;2.20;1.73;;;;;;;14.21;76.15;96614.41;3563235;40;20535;-72
2021/07/01 10:05:33;;;;;;;4.97;1.43;;;;;;;14.02;75.61;96609.84;3561955;39;21095;-72
2021/07/01 10:08:01;;;;;;;1.63;1.17;;;;;;;13.67;77.22;96625.88;3564112;40;20441;-73
2021/07/01 10:10:30;;;;;;;2.30;1.20;;;;;;;13.39;77.90;96620.22;3563361;39;20961;-71
2021/07/01 10:13:00;;;;;;;3.70;1.33;;;;;;;13.53;79.98;96613.84;3566018;40;20730;-72
2021/07/01 10:15:30;;;;;;;2.30;1.20;;;;;;;13.70;79.36;96628.25;3561755;39;20470;-73
2021/07/01 10:18:10;;;;;;;1.50;1.13;;;;;;;13.61;78.57;96630.69;3561309;40;20475;-70
2021/07/01 10:20:56;;;;;;;1.93;1.47;;;;;;;13.71;78.24;96630.78;3562962;39;20610;-73
2021/07/01 10:23:26;;;;;;;1.43;1.13;;;;;;;13.94;76.72;96631.53;3559993;40;20465;-75
2021/07/01 10:25:56;;;;;;;2.17;1.77;;;;;;;14.16;75.86;96637.69;3564272;39;20864;-74
2021/07/01 10:28:30;;;;;;;1.73;1.47;;;;;;;14.16;74.11;96635.03;3561063;40;20441;-72
2021/07/01 10:30:59;;;;;;;2.50;1.47;;;;;;;14.47;72.77;96635.13;3562713;39;20453;-73
2021/07/01 10:33:29;;;;;;;4.40;1.83;;;;;;;14.64;72.06;96624.00;3566130;40;20535;-72
2021/07/01 10:35:59;;;;;;;2.47;1.87;;;;;;;14.89;73.23;96632.47;3562072;39;20559;-72
2021/07/01 10:38:27;;;;;;;1.83;1.63;;;;;;;14.86;72.28;96638.84;3561013;40;20903;-72
2021/07/01 10:40:58;;;;;;;2.70;1.67;;;;;;;14.62;72.65;96633.84;3561912;40;20463;-72
2021/07/01 10:43:42;;;;;;;4.30;1.90;;;;;;;14.65;71.59;96636.25;3563292;40;20751;-71
2021/07/01 10:46:12;;;;;;;1.40;1.20;;;;;;;14.60;73.79;96630.50;3560527;40;20457;-73
2021/07/01 10:48:40;;;;;;;3.20;2.30;;;;;;;14.51;72.96;96645.28;3564272;40;20775;-72
2021/07/01 10:51:10;;;;;;;3.10;1.63;;;;;;;14.28;73.76;96627.91;3559928;40;20464;-72
2021/07/01 10:53:40;;;;;;;4.40;1.70;;;;;;;14.17;73.50;96641.97;3568908;40;20556;-73
2021/07/01 10:56:25;;;;;;;4.90;1.90;;;;;;;14.19;73.82;96637.41;3561000;40;20828;-73
2021/07/01 10:58:56;;;;;;;3.13;2.30;;;;;;;13.97;74.61;96654.97;3570709;39;21191;-73
2021/07/01 11:01:26;;;;;;;4.30;2.47;;;;;;;14.34;74.00;96649.31;3564971;40;20434;-71
2021/07/01 11:04:11;;;;;;;2.73;2.37;;;;;;;14.30;72.90;96647.06;3562642;39;20715;-72
2021/07/01 11:06:40;;;;;;;3.27;2.80;;;;;;;14.35;73.30;96645.72;3563246;40;20459;-72
2021/07/01 11:09:11;;;;;;;2.97;2.30;;;;;;;14.33;73.23;96642.38;3562215;39;20865;-72
2021/07/01 11:11:40;;;;;;;4.57;1.97;;;;;;;14.59;72.42;96640.22;3561805;40;20446;-71
2021/07/01 11:14:12;;;;;;;4.53;2.60;;;;;;;14.49;72.13;96649.00;3558485;40;20470;-72
2021/07/01 11:16:41;;;;;;;7.70;5.03;;;;;;;14.49;73.45;96646.38;3562314;40;20571;-73
2021/07/01 11:19:12;;;;;;;3.77;2.67;;;;;;;14.59;72.68;96634.13;3562811;39;20508;-71
2021/07/01 11:21:46;;;;;;;4.73;1.97;;;;;;;14.50;72.86;96646.22;3562296;40;20835;-71
2021/07/01 11:24:17;;;;;;;2.47;2.23;;;;;;;14.47;72.42;96635.13;3560619;40;20885;-73
2021/07/01 11:26:47;;;;;;;4.47;2.00;;;;;;;14.78;72.49;96639.50;3562356;40;20833;-73
2021/07/01 11:29:17;;;;;;;4.20;2.27;;;;;;;14.70;72.50;96639.31;3562707;39;20598;-74
2021/07/01 11:31:47;;;;;;;3.20;2.60;;;;;;;14.87;71.58;96627.31;3562188;40;21082;-73
2021/07/01 11:34:17;;;;;;;4.20;2.80;;;;;;;15.02;70.88;96639.19;3560224;39;20574;-71
2021/07/01 11:36:50;;;;;;;6.17;2.23;;;;;;;14.77;72.23;96637.81;3559334;40;20442;-72
2021/07/01 11:39:25;;;;;;;7.10;2.60;;;;;;;14.61;72.18;96651.47;3563295;40;20512;-73
2021/07/01 11:41:54;;;;;;;4.00;2.43;;;;;;;15.05;71.69;96648.63;3559322;40;20786;-71
2021/07/01 11:44:24;;;;;;;4.90;2.83;;;;;;;15.15;69.81;96640.78;3560840;39;20642;-71
2021/07/01 11:46:53;;;;;;;3.63;3.00;;;;;;;15.30;69.14;96641.25;3561700;40;21214;-71